createdAt,value
2023-02-26T00:01:00.087Z,72.69
2023-02-26T00:03:43.657Z,72.67
2023-02-26T00:06:17.132Z,72.73
2023-02-26T00:08:51.090Z,72.53
2023-02-26T00:11:26.077Z,72.57
2023-02-26T00:14:00.715Z,72.48
2023-02-26T00:16:37.328Z,72.59
2023-02-26T00:19:13.540Z,72.61
2023-02-26T00:21:48.416Z,72.68
2023-02-26T00:24:22.137Z,72.56
2023-02-26T00:26:55.936Z,72.38
2023-02-26T00:29:30.570Z,72.21
2023-02-26T00:32:04.995Z,71.89
2023-02-26T00:34:42.588Z,71.48
2023-02-26T00:37:30.255Z,71.08
2023-02-26T00:40:18.118Z,70.92
2023-02-26T00:42:53.217Z,70.88
2023-02-26T00:45:27.984Z,71.10
2023-02-26T00:48:17.337Z,71.26
2023-02-26T00:50:58.899Z,70.97
2023-02-26T00:53:37.810Z,70.49
2023-02-26T00:56:11.564Z,70.36
2023-02-26T00:58:45.079Z,70.38
2023-02-26T01:01:19.242Z,70.28
2023-02-26T01:03:53.986Z,70.24
2023-02-26T01:06:30.364Z,69.89
2023-02-26T01:09:10.608Z,70.09
2023-02-26T01:11:45.329Z,70.00
2023-02-26T01:14:20.051Z,69.77
2023-02-26T01:16:59.904Z,69.45
2023-02-26T01:19:42.080Z,69.55
2023-02-26T01:22:21.428Z,69.46
2023-02-26T01:25:01.599Z,69.47
2023-02-26T01:27:36.340Z,69.63
2023-02-26T01:30:12.355Z,69.45
2023-02-26T01:32:50.645Z,69.47
2023-02-26T01:35:41.579Z,69.46
2023-02-26T01:38:35.386Z,69.54
2023-02-26T01:41:31.100Z,69.48
2023-02-26T01:44:21.577Z,69.47
2023-02-26T01:47:11.506Z,69.50
2023-02-26T01:49:47.867Z,69.25
2023-02-26T01:53:06.655Z,69.08
2023-02-26T01:55:43.078Z,69.15
2023-02-26T01:58:17.472Z,69.09
2023-02-26T02:00:52.491Z,68.88
2023-02-26T02:03:27.904Z,68.82
2023-02-26T02:06:05.787Z,68.94
2023-02-26T02:08:40.011Z,68.90
2023-02-26T02:11:15.342Z,68.67
2023-02-26T02:14:03.055Z,68.82
2023-02-26T02:16:44.410Z,68.86
2023-02-26T02:19:36.168Z,68.91
2023-02-26T02:22:36.495Z,68.62
2023-02-26T02:25:31.440Z,68.70
2023-02-26T02:28:18.088Z,68.66
2023-02-26T02:31:03.787Z,68.55
2023-02-26T02:33:44.169Z,68.43
2023-02-26T02:36:25.791Z,68.59
2023-02-26T02:39:06.828Z,68.48
2023-02-26T02:41:46.060Z,68.57
2023-02-26T02:44:23.437Z,68.46
2023-02-26T02:46:59.771Z,68.42
2023-02-26T02:49:38.247Z,68.35
2023-02-26T02:52:19.897Z,68.35
2023-02-26T02:55:00.656Z,68.03
2023-02-26T02:57:39.334Z,68.07
2023-02-26T03:00:19.994Z,68.13
2023-02-26T03:03:00.252Z,68.05
2023-02-26T03:05:34.467Z,67.86
2023-02-26T03:08:12.604Z,67.93
2023-02-26T03:10:46.947Z,67.92
2023-02-26T03:13:22.417Z,67.95
2023-02-26T03:16:10.796Z,67.79
2023-02-26T03:19:00.318Z,67.81
2023-02-26T03:21:56.041Z,67.87
2023-02-26T03:24:57.565Z,67.86
2023-02-26T03:27:37.503Z,68.05
2023-02-26T03:30:18.085Z,67.79
2023-02-26T03:33:00.478Z,67.92
2023-02-26T03:35:45.004Z,67.89
2023-02-26T03:38:25.497Z,67.73
2023-02-26T03:41:05.202Z,67.87
2023-02-26T03:43:43.836Z,67.78
2023-02-26T03:46:23.195Z,67.79
2023-02-26T03:49:00.187Z,67.72
2023-02-26T03:51:35.665Z,67.71
2023-02-26T03:54:48.598Z,67.80
2023-02-26T03:57:42.057Z,67.82
2023-02-26T04:00:34.150Z,67.66
2023-02-26T04:03:15.444Z,67.69
2023-02-26T04:05:52.433Z,67.77
2023-02-26T04:08:27.374Z,67.78
2023-02-26T04:11:08.544Z,67.87
2023-02-26T04:13:42.600Z,67.79
2023-02-26T04:16:17.028Z,67.82
2023-02-26T04:18:50.741Z,67.92
2023-02-26T04:21:25.528Z,67.88
2023-02-26T04:23:59.279Z,67.88
2023-02-26T04:26:33.067Z,67.84
2023-02-26T04:29:06.782Z,67.71
2023-02-26T04:31:40.441Z,67.77
2023-02-26T04:34:13.624Z,67.86
2023-02-26T04:36:47.435Z,67.80
2023-02-26T04:39:21.391Z,67.91
2023-02-26T04:41:55.103Z,68.07
2023-02-26T04:44:28.648Z,67.99
2023-02-26T04:47:02.790Z,67.93
2023-02-26T04:49:37.812Z,67.84
2023-02-26T04:52:11.390Z,67.76
2023-02-26T04:54:45.231Z,67.74
2023-02-26T04:57:21.425Z,67.87
2023-02-26T04:59:54.861Z,67.83
2023-02-26T05:02:32.992Z,67.88
2023-02-26T05:05:07.576Z,68.01
2023-02-26T05:07:41.025Z,68.04
2023-02-26T05:10:15.520Z,67.84
2023-02-26T05:12:48.777Z,67.88
2023-02-26T05:15:23.203Z,67.83
2023-02-26T05:17:56.600Z,67.80
2023-02-26T05:20:30.363Z,67.45
2023-02-26T05:23:05.321Z,67.43
2023-02-26T05:25:38.878Z,67.34
2023-02-26T05:28:13.046Z,67.16
2023-02-26T05:30:46.724Z,67.16
2023-02-26T05:33:20.711Z,67.33
2023-02-26T05:35:54.117Z,67.35
2023-02-26T05:38:27.939Z,67.13
2023-02-26T05:41:03.188Z,66.90
2023-02-26T05:43:36.737Z,66.74
2023-02-26T05:46:10.649Z,66.74
2023-02-26T05:48:45.907Z,66.87
2023-02-26T05:51:19.807Z,66.62
2023-02-26T05:53:53.552Z,66.77
2023-02-26T05:56:27.424Z,66.61
2023-02-26T05:59:01.677Z,66.19
2023-02-26T06:01:37.579Z,66.13
2023-02-26T06:04:11.428Z,65.84
2023-02-26T06:06:44.925Z,65.55
2023-02-26T06:09:18.772Z,65.47
2023-02-26T06:11:52.624Z,65.36
2023-02-26T06:14:26.522Z,65.09
2023-02-26T06:16:59.983Z,64.92
2023-02-26T06:19:33.401Z,64.66
2023-02-26T06:22:07.286Z,64.76
2023-02-26T06:24:41.033Z,64.80
2023-02-26T06:27:14.744Z,64.78
2023-02-26T06:29:48.633Z,64.82
2023-02-26T06:32:22.077Z,64.65
2023-02-26T06:34:56.459Z,64.48
2023-02-26T06:37:30.906Z,64.45
2023-02-26T06:40:05.175Z,64.24
2023-02-26T06:42:38.835Z,64.17
2023-02-26T06:45:13.641Z,64.01
2023-02-26T06:47:47.077Z,63.73
2023-02-26T06:50:22.152Z,63.70
2023-02-26T06:52:56.040Z,63.59
2023-02-26T06:55:29.869Z,63.66
2023-02-26T06:58:03.789Z,63.80
2023-02-26T07:00:38.281Z,63.95
2023-02-26T07:03:15.008Z,63.89
2023-02-26T07:05:48.409Z,63.90
2023-02-26T07:08:22.201Z,63.61
2023-02-26T07:10:56.221Z,63.51
2023-02-26T07:13:30.206Z,63.33
2023-02-26T07:16:03.888Z,63.14
2023-02-26T07:18:38.015Z,63.26
2023-02-26T07:21:11.763Z,62.96
2023-02-26T07:23:45.437Z,62.65
2023-02-26T07:26:19.355Z,62.57
2023-02-26T07:28:52.846Z,62.56
2023-02-26T07:31:27.028Z,62.30
2023-02-26T07:34:00.903Z,61.96
2023-02-26T07:36:34.606Z,61.96
2023-02-26T07:39:08.372Z,62.19
2023-02-26T07:41:42.430Z,61.97
2023-02-26T07:44:21.465Z,61.67
2023-02-26T07:46:55.061Z,61.85
2023-02-26T07:49:29.023Z,61.98
2023-02-26T07:52:02.709Z,61.97
2023-02-26T07:54:36.716Z,61.93
2023-02-26T07:57:10.608Z,61.89
2023-02-26T07:59:44.151Z,61.69
2023-02-26T08:02:19.152Z,61.43
2023-02-26T08:04:53.193Z,61.41
2023-02-26T08:07:27.018Z,61.49
2023-02-26T08:10:00.759Z,61.33
2023-02-26T08:12:34.781Z,61.37
2023-02-26T08:15:09.898Z,61.47
2023-02-26T08:17:43.633Z,61.29
2023-02-26T08:20:17.795Z,61.33
2023-02-26T08:22:52.444Z,61.36
2023-02-26T08:25:26.043Z,61.05
2023-02-26T08:27:59.418Z,61.06
2023-02-26T08:30:33.336Z,61.13
2023-02-26T08:33:07.277Z,61.07
2023-02-26T08:35:40.886Z,60.80
2023-02-26T08:38:14.551Z,60.52
2023-02-26T08:40:50.403Z,60.55
2023-02-26T08:43:24.971Z,60.54
2023-02-26T08:46:00.362Z,60.76
2023-02-26T08:48:33.796Z,60.85
2023-02-26T08:51:08.122Z,60.69
2023-02-26T08:53:41.935Z,60.47
2023-02-26T08:56:15.807Z,60.43
2023-02-26T08:58:49.491Z,60.33
2023-02-26T09:01:23.452Z,60.49
2023-02-26T09:03:57.483Z,60.47
2023-02-26T09:06:31.731Z,60.68
2023-02-26T09:09:05.162Z,60.57
2023-02-26T09:11:38.853Z,60.70
2023-02-26T09:14:12.495Z,60.47
2023-02-26T09:16:47.156Z,60.31
2023-02-26T09:19:23.795Z,60.03
2023-02-26T09:21:58.407Z,60.08
2023-02-26T09:24:36.094Z,60.28
2023-02-26T09:27:09.836Z,60.29
2023-02-26T09:29:43.783Z,60.17
2023-02-26T09:32:17.836Z,59.74
2023-02-26T09:34:51.509Z,59.99
2023-02-26T09:37:25.640Z,60.19
2023-02-26T09:39:59.870Z,60.09
2023-02-26T09:42:54.424Z,59.78
2023-02-26T09:45:35.062Z,59.83
2023-02-26T09:48:14.095Z,60.07
2023-02-26T09:50:51.600Z,60.04
2023-02-26T09:53:28.365Z,59.90
2023-02-26T09:56:08.772Z,60.11
2023-02-26T09:58:43.531Z,60.14
2023-02-26T10:01:23.205Z,60.26
2023-02-26T10:04:09.028Z,60.44
2023-02-26T10:07:00.006Z,60.50
2023-02-26T10:09:50.138Z,60.60
2023-02-26T10:12:26.569Z,60.49
2023-02-26T10:15:04.489Z,60.56
2023-02-26T10:17:42.565Z,60.50
2023-02-26T10:20:23.091Z,60.45
2023-02-26T10:23:04.032Z,60.45
2023-02-26T10:25:42.996Z,60.52
2023-02-26T10:28:41.366Z,60.38
2023-02-26T10:31:20.594Z,60.45
2023-02-26T10:34:09.478Z,60.48
2023-02-26T10:36:51.421Z,60.38
2023-02-26T10:39:34.225Z,60.41
2023-02-26T10:42:19.365Z,60.16
2023-02-26T10:45:08.371Z,60.17
2023-02-26T10:47:48.438Z,59.87
2023-02-26T10:50:25.235Z,59.62
2023-02-26T10:53:01.138Z,59.52
2023-02-26T10:55:39.621Z,59.62
2023-02-26T10:58:16.376Z,59.21
2023-02-26T11:00:54.143Z,59.00
2023-02-26T11:03:36.026Z,59.13
2023-02-26T11:06:22.001Z,59.36
2023-02-26T11:08:59.549Z,59.48
2023-02-26T11:11:47.664Z,59.15
2023-02-26T11:14:22.390Z,58.83
2023-02-26T11:17:00.547Z,58.69
2023-02-26T11:19:38.586Z,58.59
2023-02-26T11:22:17.296Z,58.04
2023-02-26T11:24:51.362Z,57.42
2023-02-26T11:27:27.993Z,57.52
2023-02-26T11:30:07.475Z,57.32
2023-02-26T11:32:42.339Z,57.40
2023-02-26T11:35:20.847Z,57.26
2023-02-26T11:38:00.272Z,57.17
2023-02-26T11:40:41.169Z,56.91
2023-02-26T11:43:19.865Z,56.69
2023-02-26T11:45:55.427Z,56.71
2023-02-26T11:48:37.638Z,56.88
2023-02-26T11:51:16.789Z,56.56
2023-02-26T11:53:56.600Z,56.22
2023-02-26T11:56:40.710Z,56.49
2023-02-26T11:59:22.924Z,56.55
2023-02-26T12:01:57.607Z,56.63
2023-02-26T12:04:33.389Z,56.57
2023-02-26T12:07:14.159Z,56.63
2023-02-26T12:09:50.167Z,56.71
2023-02-26T12:12:47.422Z,56.89
2023-02-26T12:15:30.046Z,57.03
2023-02-26T12:18:28.798Z,57.02
2023-02-26T12:21:17.005Z,56.99
2023-02-26T12:24:27.830Z,57.09
2023-02-26T12:27:08.051Z,57.16
2023-02-26T12:30:10.824Z,56.99
2023-02-26T12:33:06.502Z,57.08
2023-02-26T12:35:53.140Z,57.03
2023-02-26T12:38:43.102Z,56.86
2023-02-26T12:41:40.968Z,56.41
2023-02-26T12:44:32.555Z,56.31
2023-02-26T12:47:26.727Z,56.53
2023-02-26T12:50:14.122Z,56.45
2023-02-26T12:53:11.966Z,56.35
2023-02-26T12:56:01.684Z,56.11
2023-02-26T12:58:57.391Z,55.93
2023-02-26T13:02:01.790Z,55.52
2023-02-26T13:05:02.865Z,55.33
2023-02-26T13:08:03.453Z,55.29
2023-02-26T13:10:56.064Z,55.56
2023-02-26T13:13:47.275Z,55.52
2023-02-26T13:16:35.682Z,55.29
2023-02-26T13:19:22.574Z,54.98
2023-02-26T13:22:02.000Z,54.82
2023-02-26T13:24:45.468Z,54.75
2023-02-26T13:27:26.832Z,54.06
2023-02-26T13:30:21.889Z,53.94
2023-02-26T13:33:09.393Z,54.23
2023-02-26T13:35:48.311Z,54.18
2023-02-26T13:38:33.513Z,54.31
2023-02-26T13:41:18.287Z,54.19
2023-02-26T13:44:10.189Z,53.95
2023-02-26T13:47:01.384Z,53.86
2023-02-26T13:49:51.573Z,53.91
2023-02-26T13:52:33.993Z,54.15
2023-02-26T13:55:38.675Z,54.05
2023-02-26T13:58:37.972Z,54.04
2023-02-26T14:01:17.391Z,53.81
2023-02-26T14:03:56.282Z,53.83
2023-02-26T14:06:49.052Z,54.01
2023-02-26T14:09:47.552Z,54.04
2023-02-26T14:12:39.330Z,54.05
2023-02-26T14:15:39.655Z,53.96
2023-02-26T14:18:32.789Z,53.87
2023-02-26T14:21:41.498Z,54.04
2023-02-26T14:24:33.027Z,53.90
2023-02-26T14:27:41.630Z,53.74
2023-02-26T14:30:36.569Z,53.69
2023-02-26T14:33:31.281Z,53.97
2023-02-26T14:36:08.359Z,53.57
2023-02-26T14:38:45.532Z,53.60
2023-02-26T14:41:33.456Z,53.58
2023-02-26T14:44:11.747Z,53.74
2023-02-26T14:46:47.727Z,53.77
2023-02-26T14:49:31.633Z,53.97
2023-02-26T14:52:39.631Z,53.89
2023-02-26T14:55:36.242Z,53.92
2023-02-26T14:58:28.895Z,53.92
2023-02-26T15:01:25.635Z,54.00
2023-02-26T15:04:28.812Z,54.30
2023-02-26T15:07:41.330Z,54.48
2023-02-26T15:10:42.492Z,54.45
2023-02-26T15:13:43.404Z,54.53
2023-02-26T15:16:31.984Z,54.56
2023-02-26T15:19:24.417Z,54.64
2023-02-26T15:22:20.039Z,54.66
2023-02-26T15:24:56.376Z,54.57
2023-02-26T15:27:35.683Z,54.70
2023-02-26T15:30:16.499Z,54.71
2023-02-26T15:32:59.781Z,54.76
2023-02-26T15:35:37.946Z,54.78
2023-02-26T15:38:24.118Z,54.88
2023-02-26T15:41:08.736Z,55.23
2023-02-26T15:43:49.446Z,55.25
2023-02-26T15:46:29.790Z,55.21
2023-02-26T15:49:12.840Z,55.30
2023-02-26T15:51:50.062Z,55.36
2023-02-26T15:54:27.690Z,55.40
2023-02-26T15:57:06.743Z,55.55
2023-02-26T15:59:51.698Z,55.62
2023-02-26T16:02:29.573Z,55.76
2023-02-26T16:05:06.705Z,55.86
2023-02-26T16:07:43.203Z,55.94
2023-02-26T16:10:35.657Z,56.08
2023-02-26T16:13:18.564Z,56.19
2023-02-26T16:15:54.813Z,56.39
2023-02-26T16:18:34.058Z,56.38
2023-02-26T16:21:28.868Z,56.73
2023-02-26T16:24:07.990Z,56.82
2023-02-26T16:26:51.335Z,57.06
2023-02-26T16:29:30.902Z,57.27
2023-02-26T16:32:17.369Z,57.29
2023-02-26T16:34:58.352Z,57.36
2023-02-26T16:37:39.391Z,57.31
2023-02-26T16:40:27.650Z,57.43
2023-02-26T16:43:10.820Z,57.40
2023-02-26T16:46:01.533Z,57.58
2023-02-26T16:51:44.483Z,58.13
2023-02-26T16:54:28.209Z,58.27
2023-02-26T16:57:09.662Z,58.26
2023-02-26T16:59:52.813Z,58.49
2023-02-26T17:02:31.984Z,58.55
2023-02-26T17:05:11.861Z,58.78
2023-02-26T17:07:59.438Z,58.78
2023-02-26T17:10:48.434Z,58.89
2023-02-26T17:13:30.490Z,58.81
2023-02-26T17:16:09.210Z,58.93
2023-02-26T17:18:46.515Z,59.16
2023-02-26T17:21:22.935Z,59.33
2023-02-26T17:24:03.612Z,59.36
2023-02-26T17:26:41.663Z,59.50
2023-02-26T17:29:24.819Z,59.48
2023-02-26T17:32:03.312Z,59.49
2023-02-26T17:34:44.109Z,59.62
2023-02-26T17:37:22.718Z,59.54
2023-02-26T17:40:00.788Z,59.68
2023-02-26T17:42:37.408Z,59.69
2023-02-26T17:45:15.368Z,59.84
2023-02-26T17:47:51.907Z,59.84
2023-02-26T17:50:37.530Z,59.88
2023-02-26T17:53:14.743Z,60.04
2023-02-26T17:56:00.294Z,60.13
2023-02-26T17:58:37.955Z,60.01
2023-02-26T18:01:15.087Z,59.97
2023-02-26T18:03:51.578Z,60.03
2023-02-26T18:06:41.074Z,60.06
2023-02-26T18:09:21.343Z,60.15
2023-02-26T18:12:02.944Z,60.03
2023-02-26T18:14:50.188Z,60.01
2023-02-26T18:17:41.473Z,59.95
2023-02-26T18:20:22.768Z,59.84
2023-02-26T18:22:59.700Z,59.92
2023-02-26T18:25:37.715Z,59.88
2023-02-26T18:28:23.027Z,59.82
2023-02-26T18:31:00.938Z,59.74
2023-02-26T18:33:39.032Z,59.61
2023-02-26T18:36:21.596Z,59.40
2023-02-26T18:39:03.216Z,59.42
2023-02-26T18:41:40.540Z,59.23
2023-02-26T18:44:20.039Z,59.25
2023-02-26T18:46:57.877Z,59.25
2023-02-26T18:49:35.515Z,58.91
2023-02-26T18:52:15.120Z,58.95
2023-02-26T18:54:57.691Z,58.91
2023-02-26T18:57:33.537Z,58.66
2023-02-26T19:00:15.009Z,58.64
2023-02-26T19:02:56.965Z,58.63
2023-02-26T19:05:41.466Z,58.58
2023-02-26T19:08:19.957Z,58.55
2023-02-26T19:10:56.776Z,58.56
2023-02-26T19:13:34.603Z,58.65
2023-02-26T19:16:15.710Z,58.12
2023-02-26T19:18:51.748Z,57.99
2023-02-26T19:21:35.255Z,57.86
2023-02-26T19:24:23.828Z,58.09
2023-02-26T19:27:01.288Z,57.97
2023-02-26T19:29:40.629Z,57.72
2023-02-26T19:32:19.976Z,57.76
2023-02-26T19:34:57.840Z,57.71
2023-02-26T19:37:34.947Z,57.45
2023-02-26T19:40:19.062Z,57.28
2023-02-26T19:43:00.841Z,57.24
2023-02-26T19:45:39.367Z,57.22
2023-02-26T19:48:21.004Z,57.10
2023-02-26T19:51:00.735Z,57.00
2023-02-26T19:53:37.210Z,57.02
2023-02-26T19:56:15.132Z,56.74
2023-02-26T19:58:52.398Z,56.52
2023-02-26T20:01:31.826Z,56.38
2023-02-26T20:04:14.831Z,56.32
2023-02-26T20:06:51.957Z,56.26
2023-02-26T20:09:28.856Z,56.14
2023-02-26T20:12:09.333Z,56.15
2023-02-26T20:14:46.376Z,56.06
2023-02-26T20:17:25.216Z,55.96
2023-02-26T20:20:03.729Z,55.79
2023-02-26T20:22:38.674Z,55.63
2023-02-26T20:25:18.334Z,55.62
2023-02-26T20:27:54.665Z,55.66
2023-02-26T20:30:32.804Z,55.72
2023-02-26T20:33:13.230Z,55.60
2023-02-26T20:35:50.808Z,55.36
2023-02-26T20:38:32.387Z,55.29
2023-02-26T20:41:14.650Z,55.20
2023-02-26T20:43:52.008Z,55.11
2023-02-26T20:46:27.699Z,55.15
2023-02-26T20:49:06.404Z,55.04
2023-02-26T20:51:44.194Z,55.16
2023-02-26T20:54:23.271Z,55.34
2023-02-26T20:56:58.606Z,55.32
2023-02-26T20:59:34.897Z,55.22
2023-02-26T21:02:14.856Z,55.30
2023-02-26T21:04:51.405Z,55.33
2023-02-26T21:07:28.966Z,55.34
2023-02-26T21:10:06.238Z,55.27
2023-02-26T21:12:54.982Z,55.35
2023-02-26T21:15:34.038Z,55.48
2023-02-26T21:18:14.436Z,55.62
2023-02-26T21:20:57.078Z,55.67
2023-02-26T21:23:32.733Z,55.79
2023-02-26T21:26:09.795Z,55.92
2023-02-26T21:28:54.568Z,55.92
2023-02-26T21:31:31.391Z,56.08
2023-02-26T21:34:32.614Z,56.13
2023-02-26T21:37:07.044Z,56.24
2023-02-26T21:39:43.547Z,56.37
2023-02-26T21:42:18.379Z,56.59
2023-02-26T21:44:52.608Z,56.80
2023-02-26T21:47:28.562Z,56.92
2023-02-26T21:50:03.849Z,57.00
2023-02-26T21:52:38.252Z,57.12
2023-02-26T21:55:13.232Z,57.21
2023-02-26T21:57:47.321Z,57.35
2023-02-26T22:00:23.834Z,57.49
2023-02-26T22:02:57.794Z,57.54
2023-02-26T22:05:31.715Z,57.70
2023-02-26T22:08:05.929Z,57.61
2023-02-26T22:10:39.885Z,57.78
2023-02-26T22:13:14.330Z,58.01
2023-02-26T22:15:48.420Z,58.08
2023-02-26T22:18:22.176Z,58.11
2023-02-26T22:20:55.921Z,58.14
2023-02-26T22:23:29.895Z,58.32
2023-02-26T22:26:03.251Z,58.51
2023-02-26T22:28:36.997Z,58.66
2023-02-26T22:31:10.785Z,58.74
2023-02-26T22:33:44.590Z,58.77
2023-02-26T22:36:18.076Z,58.87
2023-02-26T22:38:51.903Z,58.96
2023-02-26T22:41:25.494Z,59.28
2023-02-26T22:43:58.957Z,59.48
2023-02-26T22:46:33.116Z,59.44
2023-02-26T22:49:07.230Z,59.62
2023-02-26T22:51:41.111Z,59.68
2023-02-26T22:54:14.933Z,59.74
2023-02-26T22:56:48.681Z,59.79
2023-02-26T22:59:22.510Z,60.01
2023-02-26T23:01:56.030Z,60.11
2023-02-26T23:04:29.908Z,60.13
2023-02-26T23:07:03.327Z,60.31
2023-02-26T23:09:37.651Z,60.47
2023-02-26T23:12:11.564Z,60.49
2023-02-26T23:14:45.561Z,60.62
2023-02-26T23:17:19.287Z,60.59
2023-02-26T23:19:53.277Z,60.64
2023-02-26T23:22:27.402Z,60.68
2023-02-26T23:25:01.268Z,60.65
2023-02-26T23:27:35.698Z,60.50
2023-02-26T23:30:11.247Z,60.26
2023-02-26T23:32:45.343Z,60.30
2023-02-26T23:35:19.355Z,60.30
2023-02-26T23:37:53.076Z,60.26
2023-02-26T23:40:26.716Z,60.28
2023-02-26T23:43:00.445Z,60.42
2023-02-26T23:45:33.946Z,60.59
2023-02-26T23:48:08.060Z,60.81
2023-02-26T23:50:42.340Z,60.87
2023-02-26T23:53:16.179Z,61.00
2023-02-26T23:55:52.186Z,61.19
2023-02-26T23:58:26.191Z,61.34
